Zim Rio Grande — 9HNV9 — position and weather

sailwx.info

Track history (hours):
 
Tides and Currents Weather Stations Pressure Air Temp Water Temp Dewpoint Dewpoint Depression Visibility Wind Speed Wind Dir Waves Ship Positions

Zim Rio Grande

Last reported at 2014-Sep-25 06:23 UTC. Time now 2014-Oct-01 04:00 UTC.
Position N 32°04' W 080°58'.

Length 260 m; draft 10.9 m.

Type: Ship (hazmat cat A). MMSI: 249253000.

Date/timePositionNaut miles runAvg speedWind from/ knotsBaromVisibWave heightAir tempDewpointWater temp
2014-Sep-25 06:23N 32°04' W 080°58'7 8.5
2014-Sep-25 05:33N 32°06' W 081°06'2 2.2
2014-Sep-25 04:33N 32°07' W 081°08'0 0.0
2014-Sep-25 03:33N 32°07' W 081°08'0 0.0
2014-Sep-25 02:33N 32°07' W 081°08'0 0.0
2014-Sep-25 01:33N 32°07' W 081°08'0 0.0
2014-Sep-25 00:33N 32°07' W 081°08'0 0.0
2014-Sep-24 23:27N 32°07' W 081°08'0 0.0
2014-Sep-24 22:33N 32°07' W 081°08'0 0.0
2014-Sep-24 21:12N 32°07' W 081°08'0 0.0
2014-Sep-24 20:33N 32°07' W 081°08'0 0.0
2014-Sep-24 19:33N 32°07' W 081°08'0 0.0
2014-Sep-24 18:33N 32°07' W 081°08'0 0.0
2014-Sep-24 17:33N 32°07' W 081°08'0 0.0
2014-Sep-24 16:30N 32°07' W 081°08'0 0.3
2014-Sep-24 15:33N 32°08' W 081°08'6 5.9
2014-Sep-24 14:33N 32°05' W 081°02'57013.6
2014-Sep-22 20:33N 39°37' W 073°53'1615.6
2014-Sep-22 19:33N 39°52' W 073°52'1615.8
2014-Sep-22 18:33N 40°08' W 073°50'1615.6
2014-Sep-22 17:33N 40°24' W 073°49'1313.5
2014-Sep-22 16:34N 40°33' W 074°02'8 8.4
2014-Sep-22 15:33N 40°39' W 074°09'2 1.4
2014-Sep-22 14:30N 40°41' W 074°09'0 0.0
2014-Sep-22 13:33N 40°41' W 074°09'0 0.0
2014-Sep-22 12:33N 40°41' W 074°09'0 0.0
2014-Sep-22 11:33N 40°41' W 074°09'0 0.0
2014-Sep-22 10:27N 40°41' W 074°09'0 0.0
2014-Sep-22 09:33N 40°41' W 074°09'0 0.0
2014-Sep-22 08:33N 40°41' W 074°09'0 0.0
2014-Sep-22 07:33N 40°41' W 074°09'0 0.0
2014-Sep-22 06:33N 40°41' W 074°09'0 0.0
2014-Sep-22 05:33N 40°41' W 074°09'0 0.0
2014-Sep-22 04:33N 40°41' W 074°09'0 0.0
2014-Sep-22 03:33N 40°41' W 074°09'0 0.0
2014-Sep-22 02:33N 40°41' W 074°09'0 0.0
2014-Sep-22 01:24N 40°41' W 074°09'0 0.0
2014-Sep-21 21:15N 40°41' W 074°09'3 3.8
2014-Sep-21 20:32N 40°39' W 074°07'1411.6
2014-Sep-21 19:21N 40°29' W 073°54'1512.9
2014-Sep-21 18:10N 40°29' W 073°34'1016.7
2014-Sep-21 17:33N 40°30' W 073°21'1716.9
2014-Sep-21 16:33N 40°30' W 072°58'1716.9
2014-Sep-21 15:34N 40°31' W 072°36'1716.7
2014-Sep-21 14:33N 40°31' W 072°14'1716.7
2014-Sep-21 13:33N 40°31' W 071°52'1716.7
2014-Sep-21 12:33N 40°31' W 071°30'1313.1
2014-Sep-21 11:33N 40°32' W 071°13'1717.0
2014-Sep-21 10:33N 40°32' W 070°51'1717.2
2014-Sep-21 09:33N 40°33' W 070°28'1717.3
2014-Sep-21 08:33N 40°33' W 070°05'1817.7
2014-Sep-21 07:33N 40°33' W 069°42'1817.9
2014-Sep-21 06:33N 40°34' W 069°18'1817.6
2014-Sep-21 05:33N 40°38' W 068°56'1717.4
2014-Sep-21 04:33N 40°45' W 068°35'1716.9
2014-Sep-21 03:33N 40°53' W 068°15'1716.8
2014-Sep-21 02:33N 41°00' W 067°55'28216.6
2014-Sep-20 09:33N 44°24' W 063°29'1313.0
2014-Sep-20 08:33N 44°36' W 063°33'1 1.3
2014-Sep-20 07:27N 44°38' W 063°34'0 0.0
2014-Sep-20 06:30N 44°38' W 063°34'0 0.0
2014-Sep-20 05:30N 44°38' W 063°34'0 0.0
2014-Sep-20 04:30N 44°38' W 063°34'0 0.0
2014-Sep-20 03:30N 44°38' W 063°34'0 0.0
2014-Sep-20 02:33N 44°38' W 063°34'0 0.0
2014-Sep-20 01:33N 44°38' W 063°34'0 0.0
2014-Sep-20 00:33N 44°38' W 063°34'0 0.0
2014-Sep-19 23:33N 44°38' W 063°34'0 0.0
2014-Sep-19 22:33N 44°38' W 063°34'0 0.0
2014-Sep-19 21:33N 44°38' W 063°34'0 0.0
2014-Sep-19 20:33N 44°38' W 063°34'2 2.4
2014-Sep-19 19:33N 44°35' W 063°32'1010.2
2014-Sep-19 18:33N 44°28' W 063°23'  
Track history (hours):
 
Tides and Currents Weather Stations Pressure Air Temp Water Temp Dewpoint Dewpoint Depression Visibility Wind Speed Wind Dir Waves Ship Positions

Zim Rio Grande

Last reported at 2014-Sep-25 06:23 UTC. Time now 2014-Oct-01 04:00 UTC.
Position N 32°04' W 080°58'.

Length 260 m; draft 10.9 m.

Type: Ship (hazmat cat A). MMSI: 249253000.

Date/timePositionNaut miles runAvg speedWind from/ knotsBaromVisibWave heightAir tempDewpointWater temp
2014-Sep-25 06:23N 32°04' W 080°58'7 8.5
2014-Sep-25 05:33N 32°06' W 081°06'2 2.2
2014-Sep-25 04:33N 32°07' W 081°08'0 0.0
2014-Sep-25 03:33N 32°07' W 081°08'0 0.0
2014-Sep-25 02:33N 32°07' W 081°08'0 0.0
2014-Sep-25 01:33N 32°07' W 081°08'0 0.0
2014-Sep-25 00:33N 32°07' W 081°08'0 0.0
2014-Sep-24 23:27N 32°07' W 081°08'0 0.0
2014-Sep-24 22:33N 32°07' W 081°08'0 0.0
2014-Sep-24 21:12N 32°07' W 081°08'0 0.0
2014-Sep-24 20:33N 32°07' W 081°08'0 0.0
2014-Sep-24 19:33N 32°07' W 081°08'0 0.0
2014-Sep-24 18:33N 32°07' W 081°08'0 0.0
2014-Sep-24 17:33N 32°07' W 081°08'0 0.0
2014-Sep-24 16:30N 32°07' W 081°08'0 0.3
2014-Sep-24 15:33N 32°08' W 081°08'6 5.9
2014-Sep-24 14:33N 32°05' W 081°02'57013.6
2014-Sep-22 20:33N 39°37' W 073°53'1615.6
2014-Sep-22 19:33N 39°52' W 073°52'1615.8
2014-Sep-22 18:33N 40°08' W 073°50'1615.6
2014-Sep-22 17:33N 40°24' W 073°49'1313.5
2014-Sep-22 16:34N 40°33' W 074°02'8 8.4
2014-Sep-22 15:33N 40°39' W 074°09'2 1.4
2014-Sep-22 14:30N 40°41' W 074°09'0 0.0
2014-Sep-22 13:33N 40°41' W 074°09'0 0.0
2014-Sep-22 12:33N 40°41' W 074°09'0 0.0
2014-Sep-22 11:33N 40°41' W 074°09'0 0.0
2014-Sep-22 10:27N 40°41' W 074°09'0 0.0
2014-Sep-22 09:33N 40°41' W 074°09'0 0.0
2014-Sep-22 08:33N 40°41' W 074°09'0 0.0
2014-Sep-22 07:33N 40°41' W 074°09'0 0.0
2014-Sep-22 06:33N 40°41' W 074°09'0 0.0
2014-Sep-22 05:33N 40°41' W 074°09'0 0.0
2014-Sep-22 04:33N 40°41' W 074°09'0 0.0
2014-Sep-22 03:33N 40°41' W 074°09'0 0.0
2014-Sep-22 02:33N 40°41' W 074°09'0 0.0
2014-Sep-22 01:24N 40°41' W 074°09'0 0.0
2014-Sep-21 21:15N 40°41' W 074°09'3 3.8
2014-Sep-21 20:32N 40°39' W 074°07'1411.6
2014-Sep-21 19:21N 40°29' W 073°54'1512.9
2014-Sep-21 18:10N 40°29' W 073°34'1016.7
2014-Sep-21 17:33N 40°30' W 073°21'1716.9
2014-Sep-21 16:33N 40°30' W 072°58'1716.9
2014-Sep-21 15:34N 40°31' W 072°36'1716.7
2014-Sep-21 14:33N 40°31' W 072°14'1716.7
2014-Sep-21 13:33N 40°31' W 071°52'1716.7
2014-Sep-21 12:33N 40°31' W 071°30'1313.1
2014-Sep-21 11:33N 40°32' W 071°13'1717.0
2014-Sep-21 10:33N 40°32' W 070°51'1717.2
2014-Sep-21 09:33N 40°33' W 070°28'1717.3
2014-Sep-21 08:33N 40°33' W 070°05'1817.7
2014-Sep-21 07:33N 40°33' W 069°42'1817.9
2014-Sep-21 06:33N 40°34' W 069°18'1817.6
2014-Sep-21 05:33N 40°38' W 068°56'1717.4
2014-Sep-21 04:33N 40°45' W 068°35'1716.9
2014-Sep-21 03:33N 40°53' W 068°15'1716.8
2014-Sep-21 02:33N 41°00' W 067°55'28216.6
2014-Sep-20 09:33N 44°24' W 063°29'1313.0
2014-Sep-20 08:33N 44°36' W 063°33'1 1.3
2014-Sep-20 07:27N 44°38' W 063°34'0 0.0
2014-Sep-20 06:30N 44°38' W 063°34'0 0.0
2014-Sep-20 05:30N 44°38' W 063°34'0 0.0
2014-Sep-20 04:30N 44°38' W 063°34'0 0.0
2014-Sep-20 03:30N 44°38' W 063°34'0 0.0
2014-Sep-20 02:33N 44°38' W 063°34'0 0.0
2014-Sep-20 01:33N 44°38' W 063°34'0 0.0
2014-Sep-20 00:33N 44°38' W 063°34'0 0.0
2014-Sep-19 23:33N 44°38' W 063°34'0 0.0
2014-Sep-19 22:33N 44°38' W 063°34'0 0.0
2014-Sep-19 21:33N 44°38' W 063°34'0 0.0
2014-Sep-19 20:33N 44°38' W 063°34'2 2.4
2014-Sep-19 19:33N 44°35' W 063°32'1010.2
2014-Sep-19 18:33N 44°28' W 063°23'  

Dump ship's entire track history